createdAt,value
2018-06-03T00:01:43.056Z,95.36
2018-06-03T00:04:11.349Z,96.25
2018-06-03T00:06:39.616Z,96.34
2018-06-03T00:09:07.906Z,96.42
2018-06-03T00:11:36.175Z,96.34
2018-06-03T00:14:04.455Z,96.96
2018-06-03T00:16:32.756Z,97.15
2018-06-03T00:19:02.031Z,96.88
2018-06-03T00:21:43.124Z,97.02
2018-06-03T00:24:11.474Z,96.57
2018-06-03T00:26:39.742Z,95.98
2018-06-03T00:29:08.038Z,96.37
2018-06-03T00:31:38.251Z,96.30
2018-06-03T00:34:06.509Z,95.87
2018-06-03T00:36:43.587Z,96.48
2018-06-03T00:39:11.869Z,97.03
2018-06-03T00:41:40.919Z,97.44
2018-06-03T00:44:09.191Z,97.59
2018-06-03T00:46:37.454Z,97.57
2018-06-03T00:49:05.759Z,97.41
2018-06-03T00:51:34.055Z,97.36
2018-06-03T00:54:02.365Z,97.28
2018-06-03T00:56:48.145Z,96.99
2018-06-03T00:59:17.218Z,96.53
2018-06-03T01:01:45.504Z,97.04
2018-06-03T01:04:13.843Z,96.56
2018-06-03T01:06:42.125Z,96.01
2018-06-03T01:09:10.404Z,95.28
2018-06-03T01:11:38.678Z,95.57
2018-06-03T01:14:06.965Z,96.68
2018-06-03T01:16:36.255Z,96.93
2018-06-03T01:19:04.553Z,96.00
2018-06-03T01:21:32.837Z,95.75
2018-06-03T01:24:01.094Z,96.18
2018-06-03T01:26:29.389Z,97.06
2018-06-03T01:28:57.658Z,97.09
2018-06-03T01:31:25.926Z,96.77
2018-06-03T01:33:54.247Z,96.34
2018-06-03T01:36:22.520Z,96.18
2018-06-03T01:38:50.810Z,96.51
2018-06-03T01:41:19.161Z,97.18
2018-06-03T01:43:47.438Z,96.78
2018-06-03T01:46:15.714Z,96.40
2018-06-03T01:48:44.291Z,96.62
2018-06-03T01:51:12.554Z,96.97
2018-06-03T01:53:40.825Z,97.08
2018-06-03T01:56:09.125Z,97.45
2018-06-03T01:58:37.407Z,97.56
2018-06-03T02:01:05.712Z,97.75
2018-06-03T02:03:34.790Z,98.00
2018-06-03T02:06:03.081Z,97.96
2018-06-03T02:08:31.365Z,98.22
2018-06-03T02:10:59.622Z,98.00
2018-06-03T02:13:27.925Z,97.37
2018-06-03T02:15:56.193Z,96.95
2018-06-03T02:18:25.260Z,97.27
2018-06-03T02:20:53.529Z,96.89
2018-06-03T02:23:21.893Z,96.83
2018-06-03T02:25:53.617Z,96.99
2018-06-03T02:28:21.896Z,97.29
2018-06-03T02:30:51.858Z,97.28
2018-06-03T02:33:20.119Z,96.69
2018-06-03T02:35:48.369Z,97.21
2018-06-03T02:38:18.572Z,97.38
2018-06-03T02:40:46.862Z,96.55
2018-06-03T02:43:16.297Z,96.74
2018-06-03T02:45:44.591Z,96.68
2018-06-03T02:48:12.865Z,96.29
2018-06-03T02:50:41.155Z,96.63
2018-06-03T02:53:09.821Z,97.41
2018-06-03T02:55:38.518Z,97.35
2018-06-03T02:58:06.824Z,97.66
2018-06-03T03:00:35.278Z,97.89
2018-06-03T03:03:03.543Z,97.55
2018-06-03T03:05:31.812Z,97.31
2018-06-03T03:08:00.080Z,97.68
2018-06-03T03:10:30.665Z,98.14
2018-06-03T03:12:58.943Z,97.21
2018-06-03T03:15:27.228Z,96.97
2018-06-03T03:17:55.502Z,96.54
2018-06-03T03:20:23.863Z,96.37
2018-06-03T03:22:52.159Z,97.18
2018-06-03T03:25:20.446Z,97.36
2018-06-03T03:27:48.746Z,97.38
2018-06-03T03:30:17.784Z,97.76
2018-06-03T03:32:46.100Z,97.32
2018-06-03T03:35:14.359Z,97.73
2018-06-03T03:37:42.647Z,97.61
2018-06-03T03:40:10.921Z,97.59
2018-06-03T03:42:39.278Z,97.73
2018-06-03T03:45:07.558Z,97.57
2018-06-03T03:47:35.859Z,97.83
2018-06-03T03:50:04.154Z,97.39
2018-06-03T03:52:33.369Z,97.63
2018-06-03T03:55:02.712Z,97.69
2018-06-03T03:57:30.973Z,97.57
2018-06-03T03:59:59.277Z,98.04
2018-06-03T04:02:27.566Z,97.91
2018-06-03T04:04:57.784Z,97.94
2018-06-03T04:07:26.155Z,97.91
2018-06-03T04:09:54.449Z,98.31
2018-06-03T04:12:22.745Z,98.33
2018-06-03T04:14:51.922Z,98.32
2018-06-03T04:17:20.310Z,98.25
2018-06-03T04:19:49.568Z,98.22
2018-06-03T04:22:17.857Z,98.59
2018-06-03T04:24:46.120Z,98.71
2018-06-03T04:27:15.374Z,98.37
2018-06-03T04:29:43.710Z,98.01
2018-06-03T04:32:16.713Z,97.75
2018-06-03T04:34:45.089Z,97.24
2018-06-03T04:37:14.399Z,97.05
2018-06-03T04:39:44.626Z,96.65
2018-06-03T04:42:13.031Z,96.51
2018-06-03T04:44:44.780Z,96.26
2018-06-03T04:47:13.754Z,96.27
2018-06-03T04:49:44.986Z,96.25
2018-06-03T04:52:16.663Z,95.98
2018-06-03T04:54:49.276Z,95.51
2018-06-03T04:57:18.639Z,95.26
2018-06-03T04:59:50.411Z,95.27
2018-06-03T05:02:18.802Z,95.24
2018-06-03T05:04:47.139Z,95.03
2018-06-03T05:07:15.546Z,94.70
2018-06-03T05:09:44.825Z,94.84
2018-06-03T05:12:15.068Z,94.61
2018-06-03T05:14:43.470Z,94.65
2018-06-03T05:17:11.804Z,94.50
2018-06-03T05:19:41.142Z,94.27
2018-06-03T05:22:11.356Z,94.45
2018-06-03T05:24:40.639Z,94.67
2018-06-03T05:27:21.259Z,94.43
2018-06-03T05:29:49.701Z,94.03
2018-06-03T05:32:18.118Z,93.92
2018-06-03T05:34:46.482Z,94.10
2018-06-03T05:37:14.855Z,94.12
2018-06-03T05:39:43.207Z,93.88
2018-06-03T05:42:15.034Z,93.81
2018-06-03T05:44:47.980Z,94.01
2018-06-03T05:47:16.364Z,94.20
2018-06-03T05:49:44.723Z,94.42
2018-06-03T05:52:14.020Z,94.16
2018-06-03T05:54:42.437Z,94.23
2018-06-03T05:57:11.701Z,94.11
2018-06-03T05:59:49.906Z,93.62
2018-06-03T06:02:18.316Z,93.54
2018-06-03T06:04:47.610Z,93.31
2018-06-03T06:07:20.468Z,93.05
2018-06-03T06:09:51.578Z,93.08
2018-06-03T06:12:21.961Z,93.09
2018-06-03T06:14:52.182Z,93.01
2018-06-03T06:17:20.580Z,93.02
2018-06-03T06:19:54.499Z,93.12
2018-06-03T06:22:24.016Z,92.81
2018-06-03T06:24:54.394Z,92.70
2018-06-03T06:27:22.719Z,92.56
2018-06-03T06:29:57.194Z,92.54
2018-06-03T06:32:29.256Z,92.67
2018-06-03T06:34:57.665Z,92.64
2018-06-03T06:37:26.069Z,92.41
2018-06-03T06:39:54.478Z,92.33
2018-06-03T06:42:23.534Z,92.11
2018-06-03T06:44:51.828Z,91.97
2018-06-03T06:47:23.281Z,92.04
2018-06-03T06:49:55.335Z,92.29
2018-06-03T06:52:24.016Z,93.09
2018-06-03T06:54:53.312Z,92.99
2018-06-03T06:57:28.444Z,92.96
2018-06-03T06:59:57.738Z,92.92
2018-06-03T07:02:26.138Z,92.82
2018-06-03T07:04:54.519Z,93.12
2018-06-03T07:07:25.939Z,93.31
2018-06-03T07:09:54.391Z,92.88
2018-06-03T07:12:23.667Z,92.83
2018-06-03T07:14:52.938Z,92.66
2018-06-03T07:17:26.605Z,92.50
2018-06-03T07:19:55.652Z,92.37
2018-06-03T07:22:28.852Z,92.18
2018-06-03T07:24:57.225Z,92.23
2018-06-03T07:27:27.449Z,92.38
2018-06-03T07:30:00.138Z,91.62
2018-06-03T07:32:29.423Z,91.63
2018-06-03T07:34:59.639Z,91.47
2018-06-03T07:37:28.946Z,90.75
2018-06-03T07:39:57.337Z,88.98
2018-06-03T07:42:33.999Z,88.85
2018-06-03T07:45:02.381Z,88.42
2018-06-03T07:47:30.813Z,88.13
2018-06-03T07:50:05.104Z,87.45
2018-06-03T07:52:33.404Z,87.02
2018-06-03T07:55:06.392Z,86.93
2018-06-03T07:57:34.709Z,86.89
2018-06-03T08:00:03.100Z,87.60
2018-06-03T08:02:31.649Z,87.98
2018-06-03T08:04:59.876Z,87.92
2018-06-03T08:07:36.216Z,88.17
2018-06-03T08:10:10.446Z,87.96
2018-06-03T08:12:38.855Z,87.04
2018-06-03T08:15:11.952Z,86.94
2018-06-03T08:17:40.446Z,85.59
2018-06-03T08:20:09.811Z,83.73
2018-06-03T08:22:39.121Z,83.40
2018-06-03T08:25:09.330Z,82.82
2018-06-03T08:27:39.554Z,82.64
2018-06-03T08:30:20.503Z,79.70
2018-06-03T08:32:49.845Z,79.29
2018-06-03T08:35:22.541Z,80.81
2018-06-03T08:37:50.898Z,81.75
2018-06-03T08:40:21.112Z,81.56
2018-06-03T08:42:49.494Z,81.00
2018-06-03T08:45:17.887Z,79.37
2018-06-03T08:47:46.243Z,79.24
2018-06-03T08:50:22.020Z,79.02
2018-06-03T08:52:50.402Z,79.56
2018-06-03T08:55:19.730Z,77.71
2018-06-03T08:57:49.307Z,76.36
2018-06-03T09:00:17.721Z,74.84
2018-06-03T09:02:46.072Z,76.33
2018-06-03T09:05:23.018Z,75.92
2018-06-03T09:07:57.562Z,76.46
2018-06-03T09:10:31.461Z,75.30
2018-06-03T09:13:00.809Z,72.64
2018-06-03T09:15:32.230Z,73.65
2018-06-03T09:18:03.993Z,71.09
2018-06-03T09:20:32.371Z,70.81
2018-06-03T09:23:07.533Z,72.37
2018-06-03T09:25:35.885Z,74.16
2018-06-03T09:28:06.088Z,72.94
2018-06-03T09:30:36.357Z,74.14
2018-06-03T09:33:22.455Z,74.70
2018-06-03T09:35:50.920Z,73.76
2018-06-03T09:38:22.708Z,72.42
2018-06-03T09:40:51.099Z,72.55
2018-06-03T09:43:27.110Z,69.91
2018-06-03T09:45:55.522Z,71.10
2018-06-03T09:48:23.871Z,71.70
2018-06-03T09:50:58.698Z,72.00
2018-06-03T09:53:27.091Z,73.15
2018-06-03T09:56:01.378Z,72.32
2018-06-03T09:58:29.681Z,69.03
2018-06-03T10:01:01.804Z,68.30
2018-06-03T10:03:32.894Z,67.13
2018-06-03T10:06:01.327Z,67.03
2018-06-03T10:08:33.978Z,69.49
2018-06-03T10:11:02.343Z,71.53
2018-06-03T10:13:38.369Z,71.92
2018-06-03T10:16:08.647Z,69.20
2018-06-03T10:18:37.930Z,68.72
2018-06-03T10:21:06.319Z,68.18
2018-06-03T10:23:37.751Z,68.87
2018-06-03T10:26:06.046Z,68.16
2018-06-03T10:29:13.609Z,67.72
2018-06-03T10:31:43.180Z,69.49
2018-06-03T10:34:12.645Z,70.13
2018-06-03T10:36:42.151Z,70.34
2018-06-03T10:39:11.649Z,67.10
2018-06-03T10:41:41.289Z,67.56
2018-06-03T10:44:10.733Z,65.54
2018-06-03T10:46:40.178Z,65.86
2018-06-03T10:49:09.644Z,66.09
2018-06-03T10:51:39.076Z,65.86
2018-06-03T10:54:08.561Z,68.58
2018-06-03T10:56:38.132Z,66.25
2018-06-03T10:59:07.565Z,64.62
2018-06-03T11:01:37.022Z,64.30
2018-06-03T11:04:06.462Z,64.27
2018-06-03T11:06:36.465Z,63.64
2018-06-03T11:09:07.899Z,64.51
2018-06-03T11:11:37.372Z,64.69
2018-06-03T11:14:06.790Z,62.70
2018-06-03T11:16:36.311Z,62.30
2018-06-03T11:19:05.792Z,65.34
2018-06-03T11:21:35.188Z,63.39
2018-06-03T11:24:04.625Z,62.56
2018-06-03T11:26:34.094Z,64.94
2018-06-03T11:29:03.583Z,63.83
2018-06-03T11:31:33.018Z,62.28
2018-06-03T11:34:02.456Z,62.85
2018-06-03T11:36:31.900Z,64.85
2018-06-03T11:39:01.325Z,59.81
2018-06-03T11:41:30.734Z,59.58
2018-06-03T11:44:00.138Z,62.71
2018-06-03T11:46:29.596Z,61.39
2018-06-03T11:48:59.029Z,59.87
2018-06-03T11:51:28.226Z,60.62
2018-06-03T11:53:57.590Z,59.69
2018-06-03T11:58:46.386Z,58.84
2018-06-03T12:01:15.771Z,58.11
2018-06-03T12:03:45.227Z,58.32
2018-06-03T12:06:14.716Z,60.60
2018-06-03T12:08:44.230Z,58.68
2018-06-03T12:11:13.633Z,59.74
2018-06-03T12:13:43.076Z,57.62
2018-06-03T12:16:12.473Z,60.72
2018-06-03T12:18:41.823Z,58.77
2018-06-03T12:21:11.270Z,56.65
2018-06-03T12:23:40.839Z,57.80
2018-06-03T12:26:11.390Z,57.51
2018-06-03T12:28:40.550Z,56.02
2018-06-03T12:31:09.918Z,55.22
2018-06-03T12:33:39.389Z,55.06
2018-06-03T12:36:08.771Z,54.71
2018-06-03T12:38:38.190Z,55.63
2018-06-03T12:41:07.345Z,57.18
2018-06-03T12:43:36.753Z,57.29
2018-06-03T12:46:06.990Z,56.93
2018-06-03T12:48:36.448Z,57.85
2018-06-03T12:51:05.999Z,55.53
2018-06-03T12:53:35.388Z,53.88
2018-06-03T12:56:04.865Z,53.48
2018-06-03T12:58:34.301Z,54.60
2018-06-03T13:01:03.779Z,57.43
2018-06-03T13:03:33.172Z,55.29
2018-06-03T13:06:02.618Z,55.46
2018-06-03T13:08:32.036Z,56.13
2018-06-03T13:11:01.470Z,54.50
2018-06-03T13:13:30.928Z,53.94
2018-06-03T13:16:00.332Z,53.30
2018-06-03T13:18:29.753Z,54.18
2018-06-03T13:20:59.248Z,53.88
2018-06-03T13:23:28.652Z,52.54
2018-06-03T13:25:58.133Z,56.28
2018-06-03T13:28:27.582Z,56.32
2018-06-03T13:30:57.057Z,54.38
2018-06-03T13:33:26.432Z,53.14
2018-06-03T13:35:55.825Z,52.27
2018-06-03T13:38:25.268Z,51.22
2018-06-03T13:40:54.687Z,51.95
2018-06-03T13:43:24.128Z,52.33
2018-06-03T13:45:53.597Z,50.07
2018-06-03T13:48:23.019Z,48.12
2018-06-03T13:50:52.403Z,50.91
2018-06-03T13:53:21.808Z,51.17
2018-06-03T13:55:51.183Z,49.68
2018-06-03T13:58:20.631Z,48.37
2018-06-03T14:00:50.103Z,49.79
2018-06-03T14:03:19.566Z,52.30
2018-06-03T14:05:49.014Z,54.13
2018-06-03T14:08:18.421Z,52.20
2018-06-03T14:10:47.869Z,49.60
2018-06-03T14:13:17.307Z,48.85
2018-06-03T14:15:46.690Z,49.84
2018-06-03T14:18:16.124Z,50.07
2018-06-03T14:20:45.509Z,54.43
2018-06-03T14:23:14.987Z,54.46
2018-06-03T14:25:44.392Z,56.41
2018-06-03T14:28:13.842Z,55.21
2018-06-03T14:30:44.520Z,49.64
2018-06-03T14:33:14.103Z,50.21
2018-06-03T14:35:45.885Z,50.38
2018-06-03T14:38:18.536Z,50.26
2018-06-03T14:40:48.111Z,50.64
2018-06-03T14:43:17.564Z,49.56
2018-06-03T14:45:46.995Z,50.41
2018-06-03T14:48:16.724Z,49.94
2018-06-03T14:50:48.341Z,48.79
2018-06-03T14:53:18.955Z,47.32
2018-06-03T14:55:53.456Z,47.07
2018-06-03T14:58:22.847Z,45.33
2018-06-03T15:00:52.289Z,42.91
2018-06-03T15:03:23.758Z,44.46
2018-06-03T15:06:16.666Z,47.49
2018-06-03T15:08:48.151Z,47.55
2018-06-03T15:11:18.663Z,46.54
2018-06-03T15:13:54.147Z,47.30
2018-06-03T15:16:27.263Z,49.92
2018-06-03T15:18:56.703Z,46.53
2018-06-03T15:21:28.252Z,47.09
2018-06-03T15:23:57.808Z,46.71
2018-06-03T15:26:27.436Z,47.73
2018-06-03T15:29:01.754Z,47.28
2018-06-03T15:31:55.933Z,47.17
2018-06-03T15:34:27.631Z,45.39
2018-06-03T15:36:58.934Z,44.85
2018-06-03T15:39:35.758Z,44.58
2018-06-03T15:42:10.653Z,45.15
2018-06-03T15:44:41.146Z,46.47
2018-06-03T15:47:10.602Z,47.92
2018-06-03T15:49:40.045Z,48.23
2018-06-03T15:52:09.188Z,50.61
2018-06-03T15:54:38.568Z,48.38
2018-06-03T15:57:08.000Z,49.95
2018-06-03T15:59:37.428Z,46.55
2018-06-03T16:02:07.125Z,43.92
2018-06-03T16:04:36.521Z,44.23
2018-06-03T16:07:06.143Z,44.94
2018-06-03T16:09:35.565Z,44.99
2018-06-03T16:12:05.057Z,46.61
2018-06-03T16:14:34.565Z,47.34
2018-06-03T16:17:04.000Z,49.91
2018-06-03T16:19:33.516Z,50.85
2018-06-03T16:22:02.676Z,46.93
2018-06-03T16:24:32.129Z,47.95
2018-06-03T16:27:01.258Z,51.10
2018-06-03T16:29:30.685Z,50.03
2018-06-03T16:32:00.143Z,48.27
2018-06-03T16:34:29.591Z,47.02
2018-06-03T16:37:00.026Z,46.48
2018-06-03T16:39:29.423Z,45.69
2018-06-03T16:41:58.882Z,45.18
2018-06-03T16:44:28.398Z,43.25
2018-06-03T16:46:57.890Z,44.54
2018-06-03T16:49:27.295Z,43.06
2018-06-03T16:51:56.938Z,45.24
2018-06-03T16:54:26.544Z,47.25
2018-06-03T16:56:56.047Z,46.50
2018-06-03T16:59:25.512Z,44.50
2018-06-03T17:01:54.928Z,43.75
2018-06-03T17:04:24.406Z,44.08
2018-06-03T17:06:53.966Z,44.89
2018-06-03T17:09:23.333Z,45.88
2018-06-03T17:11:52.862Z,44.66
2018-06-03T17:14:22.303Z,45.18
2018-06-03T17:16:51.778Z,41.10
2018-06-03T17:19:21.401Z,41.42
2018-06-03T17:21:50.834Z,42.96
2018-06-03T17:24:20.290Z,43.05
2018-06-03T17:26:49.921Z,43.86
2018-06-03T17:29:19.348Z,44.15
2018-06-03T17:31:48.865Z,44.81
2018-06-03T17:34:18.366Z,47.20
2018-06-03T17:36:47.805Z,50.19
2018-06-03T17:39:17.306Z,50.58
2018-06-03T17:41:46.445Z,51.14
2018-06-03T17:44:15.960Z,51.77
2018-06-03T17:46:45.456Z,51.82
2018-06-03T17:49:14.945Z,50.15
2018-06-03T17:51:44.370Z,49.92
2018-06-03T17:54:13.876Z,51.71
2018-06-03T17:56:43.338Z,51.28
2018-06-03T17:59:13.513Z,51.02
2018-06-03T18:01:42.986Z,54.26
2018-06-03T18:04:12.469Z,56.84
2018-06-03T18:06:41.942Z,56.33
2018-06-03T18:09:11.483Z,59.66
2018-06-03T18:11:40.943Z,61.34
2018-06-03T18:14:10.477Z,61.83
2018-06-03T18:16:40.004Z,62.61
2018-06-03T18:19:09.473Z,62.98
2018-06-03T18:21:38.956Z,62.93
2018-06-03T18:24:08.442Z,64.87
2018-06-03T18:26:37.878Z,65.59
2018-06-03T18:29:07.328Z,66.24
2018-06-03T18:31:36.807Z,65.08
2018-06-03T18:34:06.306Z,66.75
2018-06-03T18:36:35.795Z,65.42
2018-06-03T18:39:07.590Z,66.23
2018-06-03T18:41:37.035Z,66.79
2018-06-03T18:44:06.498Z,66.14
2018-06-03T18:46:39.713Z,66.80
2018-06-03T18:49:09.189Z,67.12
2018-06-03T18:51:38.746Z,67.29
2018-06-03T18:54:08.227Z,67.19
2018-06-03T18:56:37.729Z,67.38
2018-06-03T18:59:07.120Z,67.91
2018-06-03T19:01:36.607Z,67.82
2018-06-03T19:04:06.319Z,69.28
2018-06-03T19:06:35.868Z,67.80
2018-06-03T19:09:07.384Z,68.87
2018-06-03T19:11:36.890Z,68.87
2018-06-03T19:14:06.473Z,69.00
2018-06-03T19:16:35.945Z,69.82
2018-06-03T19:19:05.382Z,69.49
2018-06-03T19:21:34.778Z,70.67
2018-06-03T19:24:04.277Z,70.00
2018-06-03T19:26:33.727Z,70.63
2018-06-03T19:29:03.187Z,70.44
2018-06-03T19:31:32.611Z,71.23
2018-06-03T19:34:02.103Z,71.45
2018-06-03T19:36:31.612Z,72.17
2018-06-03T19:39:01.072Z,73.43
2018-06-03T19:41:30.614Z,74.09
2018-06-03T19:44:00.059Z,76.26
2018-06-03T19:46:29.510Z,76.15
2018-06-03T19:48:59.126Z,75.60
2018-06-03T19:51:28.595Z,76.57
2018-06-03T19:53:58.012Z,77.25
2018-06-03T19:56:27.466Z,77.85
2018-06-03T19:58:56.952Z,76.63
2018-06-03T20:01:26.598Z,78.03
2018-06-03T20:03:56.135Z,78.24
2018-06-03T20:06:25.548Z,79.17
2018-06-03T20:08:54.967Z,79.55
2018-06-03T20:11:24.388Z,79.68
2018-06-03T20:13:53.849Z,80.49
2018-06-03T20:16:23.286Z,80.62
2018-06-03T20:18:52.888Z,81.28
2018-06-03T20:21:22.513Z,81.00
2018-06-03T20:23:51.981Z,81.38
2018-06-03T20:26:21.426Z,82.54
2018-06-03T20:28:50.823Z,82.69
2018-06-03T20:31:20.271Z,82.01
2018-06-03T20:33:50.744Z,81.30
2018-06-03T20:36:21.156Z,81.99
2018-06-03T20:38:50.615Z,82.89
2018-06-03T20:41:35.775Z,83.21
2018-06-03T20:44:05.253Z,84.44
2018-06-03T20:46:34.376Z,84.78
2018-06-03T20:49:03.870Z,84.46
2018-06-03T20:51:33.448Z,83.16
2018-06-03T20:54:02.908Z,84.61
2018-06-03T20:56:32.340Z,84.93
2018-06-03T20:59:01.840Z,85.93
2018-06-03T21:01:31.272Z,86.17
2018-06-03T21:04:01.854Z,85.86
2018-06-03T21:06:31.401Z,86.55
2018-06-03T21:09:00.871Z,85.82
2018-06-03T21:11:30.404Z,85.86
2018-06-03T21:13:59.853Z,86.51
2018-06-03T21:16:29.303Z,86.75
2018-06-03T21:18:58.785Z,87.13
2018-06-03T21:21:28.198Z,86.26
2018-06-03T21:23:57.669Z,86.22
2018-06-03T21:26:28.165Z,87.28
2018-06-03T21:28:57.736Z,88.11
2018-06-03T21:31:27.235Z,88.16
2018-06-03T21:33:56.772Z,87.70
2018-06-03T21:36:26.176Z,87.08
2018-06-03T21:38:55.686Z,86.75
2018-06-03T21:41:27.296Z,87.43
2018-06-03T21:43:57.201Z,87.85
2018-06-03T21:46:26.671Z,88.28
2018-06-03T21:48:56.064Z,89.13
2018-06-03T21:51:25.595Z,88.47
2018-06-03T21:53:54.986Z,88.09
2018-06-03T21:56:24.413Z,89.86
2018-06-03T21:58:53.922Z,89.33
2018-06-03T22:01:23.372Z,89.14
2018-06-03T22:03:52.765Z,89.08
2018-06-03T22:06:22.244Z,90.07
2018-06-03T22:08:51.737Z,90.52
2018-06-03T22:11:21.255Z,89.84
2018-06-03T22:13:50.673Z,89.62
2018-06-03T22:16:20.216Z,90.19
2018-06-03T22:18:49.606Z,90.36
2018-06-03T22:21:19.602Z,90.67
2018-06-03T22:23:49.026Z,91.30
2018-06-03T22:26:19.472Z,91.74
2018-06-03T22:28:48.958Z,91.22
2018-06-03T22:31:18.437Z,91.25
2018-06-03T22:33:47.597Z,91.09
2018-06-03T22:36:17.019Z,90.92
2018-06-03T22:38:46.634Z,91.69
2018-06-03T22:41:16.062Z,91.68
2018-06-03T22:43:45.525Z,92.00
2018-06-03T22:46:16.818Z,92.33
2018-06-03T22:48:46.303Z,92.52
2018-06-03T22:51:15.791Z,93.25
2018-06-03T22:53:45.282Z,92.61
2018-06-03T22:56:14.640Z,93.16
2018-06-03T22:58:44.019Z,92.75
2018-06-03T23:01:13.498Z,93.13
2018-06-03T23:03:43.000Z,93.27
2018-06-03T23:06:14.283Z,93.60
2018-06-03T23:08:43.698Z,93.49
2018-06-03T23:11:13.101Z,93.04
2018-06-03T23:13:42.250Z,93.28
2018-06-03T23:16:11.692Z,94.20
2018-06-03T23:18:41.164Z,94.09
2018-06-03T23:21:10.586Z,94.54
2018-06-03T23:23:40.020Z,94.35
2018-06-03T23:26:09.447Z,94.00
2018-06-03T23:28:38.884Z,93.86
2018-06-03T23:31:08.475Z,93.37
2018-06-03T23:33:38.065Z,93.15
2018-06-03T23:36:07.499Z,94.32
2018-06-03T23:38:36.892Z,94.37
2018-06-03T23:41:06.284Z,94.21
2018-06-03T23:43:35.812Z,93.99
2018-06-03T23:46:05.461Z,93.98
2018-06-03T23:48:34.866Z,94.04
2018-06-03T23:51:04.310Z,93.91
2018-06-03T23:53:33.732Z,94.55
2018-06-03T23:56:03.167Z,94.85
2018-06-03T23:58:32.564Z,94.82
